Weather Forecast for Al Ain Airport 
Thursday, January 19, 2017 (02:11 UTC)
Al Ain International Airport
ICAO Code: OMAL
IATA Code: AAN
  • METAR OMAL 190200Z 05006KT 9000 NSC 15/11 Q1018 NOSIG=
  • TAF OMAL 182300Z 1900/2006 36005KT 8000 NSC BECMG 1900/1902 10004KT PROB30 1901/1905 VRB02KT 4000 HZ BECMG 1911/1913 31008KT BECMG 1918/1920 13005KT=
AL AIN (OMAL) 5 DAY OUTLOOK:
Thursday, 19/Jan/2017
HIGH:
24°C
LOW:
12°C
MIN. VISIBILITY:
3000 meters
WIND (DIRECTION/SPEED):
Light and variable wind becoming NW at 7 - 10 knots (13 - 19 km/h)
WEATHER:
Hazy, becoming partly cloudy.
RAINFALL:
Nil
Friday, 20/Jan/2017
HIGH:
25°C
LOW:
13°C
MIN. VISIBILITY:
4000 meters
WIND (DIRECTION/SPEED):
SW at 3 - 5 knots (6 - 9 km/h) becoming NW at 7 - 10 knots (13 - 19 km/h)
WEATHER:
Hazy at first otherwise partly cloudy.
RAINFALL:
Nil
Saturday, 21/Jan/2017
HIGH:
25°C
LOW:
14°C
MIN. VISIBILITY:
8000 meters
WIND (DIRECTION/SPEED):
S at 3 - 5 knots (6 - 9 km/h) becoming NW at 7 - 10 knots (13 - 19 km/h)
WEATHER:
Sunny
RAINFALL:
Nil
Sunday, 22/Jan/2017
HIGH:
24°C
LOW:
13°C
MIN. VISIBILITY:
6000 meters
WIND (DIRECTION/SPEED):
SSE at 3 - 5 knots (6 - 9 km/h) becoming NW at 10 - 15 knots (19 - 28 km/h)
WEATHER:
Partly Cloudy.
RAINFALL:
Nil
Monday, 23/Jan/2017
HIGH:
24°C
LOW:
13°C
MIN. VISIBILITY:
6000 meters
WIND (DIRECTION/SPEED):
Light and variable wind becoming NW at 10 - 15 knots (19 - 28 km/h)
WEATHER:
Partly Cloudy.
RAINFALL:
Nil